createdAt,value
2023-01-12T00:00:55.640Z,17.13
2023-01-12T00:03:40.481Z,14.57
2023-01-12T00:06:25.713Z,15.77
2023-01-12T00:09:11.240Z,15.50
2023-01-12T00:11:56.293Z,15.10
2023-01-12T00:14:41.862Z,15.90
2023-01-12T00:17:27.132Z,13.53
2023-01-12T00:20:12.584Z,12.37
2023-01-12T00:22:57.468Z,15.83
2023-01-12T00:25:42.400Z,17.33
2023-01-12T00:28:27.348Z,12.63
2023-01-12T00:31:12.495Z,12.20
2023-01-12T00:33:58.016Z,16.40
2023-01-12T00:36:43.641Z,16.40
2023-01-12T00:39:28.976Z,12.87
2023-01-12T00:42:13.975Z,18.40
2023-01-12T00:44:59.027Z,19.60
2023-01-12T00:47:44.405Z,17.23
2023-01-12T00:50:29.289Z,18.10
2023-01-12T00:53:14.757Z,19.67
2023-01-12T00:56:04.381Z,25.60
2023-01-12T00:58:49.872Z,22.10
2023-01-12T01:01:35.428Z,21.93
2023-01-12T01:04:20.734Z,19.57
2023-01-12T01:07:06.022Z,23.10
2023-01-12T01:09:51.636Z,24.47
2023-01-12T01:12:37.054Z,24.20
2023-01-12T01:15:21.813Z,14.77
2023-01-12T01:18:06.714Z,19.17
2023-01-12T01:20:52.120Z,18.50
2023-01-12T01:23:38.708Z,15.40
2023-01-12T01:26:24.172Z,14.23
2023-01-12T01:29:09.861Z,17.63
2023-01-12T01:31:55.530Z,11.53
2023-01-12T01:34:41.019Z,16.17
2023-01-12T01:37:26.261Z,14.13
2023-01-12T01:40:11.686Z,22.87
2023-01-12T01:42:56.483Z,17.70
2023-01-12T01:45:45.666Z,18.07
2023-01-12T01:48:33.949Z,12.90
2023-01-12T01:51:21.193Z,15.97
2023-01-12T01:54:06.314Z,16.87
2023-01-12T01:56:56.117Z,14.87
2023-01-12T01:59:45.535Z,14.93
2023-01-12T02:02:30.913Z,16.43
2023-01-12T02:05:19.415Z,19.00
2023-01-12T02:08:12.797Z,15.37
2023-01-12T02:11:00.215Z,16.53
2023-01-12T02:13:45.641Z,14.00
2023-01-12T02:16:33.106Z,15.83
2023-01-12T02:19:40.926Z,14.77
2023-01-12T02:22:51.717Z,15.30
2023-01-12T02:26:01.575Z,11.03
2023-01-12T02:29:21.028Z,14.23
2023-01-12T02:32:33.435Z,18.73
2023-01-12T02:35:29.214Z,15.10
2023-01-12T02:38:24.219Z,13.33
2023-01-12T02:41:23.444Z,17.57
2023-01-12T02:44:17.864Z,14.47
2023-01-12T02:47:06.784Z,10.40
2023-01-12T02:49:56.364Z,14.87
2023-01-12T02:52:45.575Z,15.57
2023-01-12T02:55:31.784Z,15.13
2023-01-12T02:58:20.808Z,15.73
2023-01-12T03:01:07.379Z,15.83
2023-01-12T03:03:55.837Z,12.43
2023-01-12T03:06:56.246Z,12.53
2023-01-12T03:09:47.536Z,12.10
2023-01-12T03:12:37.849Z,17.27
2023-01-12T03:15:24.281Z,18.40
2023-01-12T03:18:14.014Z,16.40
2023-01-12T03:21:05.480Z,14.83
2023-01-12T03:24:14.562Z,15.93
2023-01-12T03:27:04.985Z,20.07
2023-01-12T03:30:02.699Z,18.50
2023-01-12T03:32:48.872Z,16.63
2023-01-12T03:35:43.139Z,21.10
2023-01-12T03:38:47.775Z,17.83
2023-01-12T03:41:57.454Z,17.53
2023-01-12T03:45:11.543Z,17.53
2023-01-12T03:48:17.929Z,15.07
2023-01-12T03:51:14.386Z,18.77
2023-01-12T03:54:00.981Z,19.80
2023-01-12T03:56:47.445Z,19.43
2023-01-12T03:59:32.936Z,22.87
2023-01-12T04:02:17.865Z,19.67
2023-01-12T04:05:03.748Z,20.73
2023-01-12T04:07:48.639Z,14.90
2023-01-12T04:10:34.085Z,20.67
2023-01-12T04:13:19.260Z,21.50
2023-01-12T04:16:04.561Z,22.33
2023-01-12T04:18:49.543Z,19.63
2023-01-12T04:21:34.466Z,20.93
2023-01-12T04:24:19.335Z,21.60
2023-01-12T04:27:04.175Z,24.73
2023-01-12T04:29:49.508Z,20.30
2023-01-12T04:32:34.379Z,21.90
2023-01-12T04:35:19.267Z,20.93
2023-01-12T04:38:09.722Z,22.37
2023-01-12T04:40:55.454Z,25.27
2023-01-12T04:43:40.359Z,20.87
2023-01-12T04:46:25.907Z,21.57
2023-01-12T04:49:11.070Z,19.37
2023-01-12T04:51:56.427Z,14.17
2023-01-12T04:54:41.364Z,14.57
2023-01-12T04:57:26.243Z,15.27
2023-01-12T05:00:11.675Z,17.83
2023-01-12T05:02:58.053Z,17.27
2023-01-12T05:05:43.415Z,17.63
2023-01-12T05:08:28.796Z,16.90
2023-01-12T05:11:16.376Z,14.50
2023-01-12T05:14:01.603Z,16.83
2023-01-12T05:16:46.960Z,13.97
2023-01-12T05:19:32.251Z,11.27
2023-01-12T05:22:17.633Z,11.90
2023-01-12T05:25:03.015Z,8.77
2023-01-12T05:27:54.973Z,8.43
2023-01-12T05:30:39.988Z,8.37
2023-01-12T05:33:25.286Z,6.97
2023-01-12T05:36:13.285Z,7.07
2023-01-12T05:38:58.173Z,9.80
2023-01-12T05:41:42.921Z,9.73
2023-01-12T05:44:27.826Z,10.13
2023-01-12T05:47:12.744Z,9.57
2023-01-12T05:49:58.077Z,9.37
2023-01-12T05:52:45.925Z,7.00
2023-01-12T05:55:30.695Z,10.43
2023-01-12T05:58:15.582Z,6.73
2023-01-12T06:01:00.732Z,9.53
2023-01-12T06:03:53.489Z,11.10
2023-01-12T06:06:39.726Z,6.80
2023-01-12T06:09:24.621Z,10.00
2023-01-12T06:12:11.777Z,9.90
2023-01-12T06:14:56.966Z,7.73
2023-01-12T06:17:42.365Z,6.03
2023-01-12T06:20:27.287Z,5.43
2023-01-12T06:23:12.489Z,10.60
2023-01-12T06:26:01.160Z,5.37
2023-01-12T06:28:45.989Z,4.77
2023-01-12T06:31:31.098Z,4.27
2023-01-12T06:34:16.240Z,4.33
2023-01-12T06:37:02.268Z,8.80
2023-01-12T06:39:47.263Z,5.40
2023-01-12T06:42:32.061Z,8.77
2023-01-12T06:45:16.885Z,7.97
2023-01-12T06:48:01.898Z,4.87
2023-01-12T06:50:47.147Z,5.63
2023-01-12T06:53:32.630Z,7.73
2023-01-12T06:56:17.963Z,5.27
2023-01-12T06:59:02.821Z,3.23
2023-01-12T07:01:48.461Z,4.80
2023-01-12T07:04:33.985Z,6.87
2023-01-12T07:07:18.979Z,5.63
2023-01-12T07:10:04.425Z,3.83
2023-01-12T07:12:49.741Z,3.37
2023-01-12T07:15:34.640Z,5.40
2023-01-12T07:18:19.971Z,5.47
2023-01-12T07:21:10.000Z,6.67
2023-01-12T07:23:55.380Z,2.17
2023-01-12T07:26:40.329Z,8.57
2023-01-12T07:29:25.645Z,6.83
2023-01-12T07:32:10.556Z,4.63
2023-01-12T07:34:55.575Z,3.20
2023-01-12T07:37:47.613Z,3.97
2023-01-12T07:40:33.471Z,2.50
2023-01-12T07:43:18.614Z,3.20
2023-01-12T07:46:04.078Z,3.03
2023-01-12T07:48:49.566Z,2.63
2023-01-12T07:51:34.558Z,5.13
2023-01-12T07:54:20.273Z,4.90
2023-01-12T07:57:09.033Z,2.27
2023-01-12T07:59:53.935Z,2.00
2023-01-12T08:02:39.266Z,1.53
2023-01-12T08:05:24.641Z,3.77
2023-01-12T08:08:09.651Z,4.37
2023-01-12T08:10:54.439Z,2.37
2023-01-12T08:13:39.997Z,4.87
2023-01-12T08:16:29.563Z,1.27
2023-01-12T08:19:18.297Z,2.40
2023-01-12T08:22:07.714Z,3.50
2023-01-12T08:25:00.694Z,3.83
2023-01-12T08:27:50.032Z,1.50
2023-01-12T08:30:35.647Z,2.67
2023-01-12T08:33:20.909Z,2.57
2023-01-12T08:36:09.184Z,4.63
2023-01-12T08:38:56.091Z,1.80
2023-01-12T08:41:40.899Z,5.03
2023-01-12T08:44:26.339Z,2.60
2023-01-12T08:47:20.350Z,3.90
2023-01-12T08:50:05.647Z,3.17
2023-01-12T08:52:50.918Z,3.00
2023-01-12T08:55:35.971Z,2.67
2023-01-12T08:58:21.329Z,3.70
2023-01-12T09:01:09.326Z,3.63
2023-01-12T09:03:56.033Z,3.03
2023-01-12T09:06:43.440Z,3.87
2023-01-12T09:09:28.381Z,4.10
2023-01-12T09:12:13.744Z,2.73
2023-01-12T09:14:58.518Z,3.00
2023-01-12T09:17:43.497Z,3.40
2023-01-12T09:20:28.942Z,3.90
2023-01-12T09:23:14.174Z,6.63
2023-01-12T09:26:06.719Z,4.30
2023-01-12T09:28:51.593Z,8.50
2023-01-12T09:31:38.511Z,5.70
2023-01-12T09:34:23.798Z,6.30
2023-01-12T09:37:08.579Z,6.33
2023-01-12T09:39:54.095Z,3.50
2023-01-12T09:42:39.452Z,5.50
2023-01-12T09:45:25.053Z,7.67
2023-01-12T09:48:12.990Z,6.23
2023-01-12T09:51:25.114Z,6.70
2023-01-12T09:54:10.870Z,6.27
2023-01-12T09:57:36.098Z,9.30
2023-01-12T10:00:21.995Z,6.80
2023-01-12T10:03:10.514Z,7.37
2023-01-12T10:05:58.563Z,7.60
2023-01-12T10:09:05.927Z,11.93
2023-01-12T10:12:19.300Z,9.10
2023-01-12T10:15:13.355Z,13.77
2023-01-12T10:18:10.568Z,12.17
2023-01-12T10:20:57.275Z,11.97
2023-01-12T10:23:42.858Z,7.00
2023-01-12T10:26:41.324Z,8.63
2023-01-12T10:29:26.867Z,7.23
2023-01-12T10:32:11.968Z,11.23
2023-01-12T10:34:56.702Z,7.23
2023-01-12T10:37:51.925Z,6.93
2023-01-12T10:40:37.247Z,9.47
2023-01-12T10:43:22.325Z,5.33
2023-01-12T10:46:29.837Z,11.30
2023-01-12T10:49:22.557Z,6.50
2023-01-12T10:52:35.041Z,16.20
2023-01-12T10:55:21.858Z,10.03
2023-01-12T10:58:27.340Z,11.10
2023-01-12T11:01:13.640Z,10.40
2023-01-12T11:04:05.395Z,9.27
2023-01-12T11:07:05.331Z,10.90
2023-01-12T11:09:50.288Z,12.80
2023-01-12T11:12:39.995Z,8.13
2023-01-12T11:15:25.958Z,7.43
2023-01-12T11:18:38.485Z,8.53
2023-01-12T11:21:29.478Z,9.13
2023-01-12T11:24:28.124Z,9.57
2023-01-12T11:27:28.899Z,6.63
2023-01-12T11:30:29.738Z,8.90
2023-01-12T11:33:26.496Z,10.17
2023-01-12T11:36:17.512Z,13.13
2023-01-12T11:39:24.205Z,7.53
2023-01-12T11:42:18.485Z,11.53
2023-01-12T11:45:17.002Z,9.47
2023-01-12T11:48:13.166Z,7.80
2023-01-12T11:51:00.377Z,8.93
2023-01-12T11:53:45.575Z,7.37
2023-01-12T11:56:51.876Z,4.90
2023-01-12T11:59:55.840Z,7.43
2023-01-12T12:03:15.393Z,7.50
2023-01-12T12:06:15.035Z,5.63
2023-01-12T12:09:31.822Z,3.70
2023-01-12T12:12:26.063Z,5.03
2023-01-12T12:15:16.987Z,4.07
2023-01-12T12:18:18.401Z,7.73
2023-01-12T12:21:34.225Z,5.27
2023-01-12T12:24:24.992Z,5.50
2023-01-12T12:27:27.056Z,4.50
2023-01-12T12:30:24.639Z,7.43
2023-01-12T12:33:34.014Z,4.83
2023-01-12T12:36:28.160Z,5.67
2023-01-12T12:39:19.123Z,7.57
2023-01-12T12:42:10.287Z,7.17
2023-01-12T12:45:16.623Z,5.33
2023-01-12T12:48:35.625Z,4.07
2023-01-12T12:51:21.438Z,3.47
2023-01-12T12:54:12.581Z,6.63
2023-01-12T12:56:57.880Z,7.90
2023-01-12T12:59:42.510Z,7.80
2023-01-12T13:02:51.003Z,7.03
2023-01-12T13:05:42.819Z,5.10
2023-01-12T13:08:34.664Z,6.53
2023-01-12T13:11:21.174Z,7.33
2023-01-12T13:14:19.822Z,5.13
2023-01-12T13:17:19.981Z,5.23
2023-01-12T13:20:16.560Z,7.07
2023-01-12T13:23:45.957Z,5.17
2023-01-12T13:26:34.355Z,4.87
2023-01-12T13:29:22.852Z,5.60
2023-01-12T13:32:35.035Z,6.53
2023-01-12T13:35:35.291Z,3.63
2023-01-12T13:38:42.314Z,3.97
2023-01-12T13:41:31.369Z,4.00
2023-01-12T13:44:33.457Z,7.70
2023-01-12T13:47:28.097Z,3.73
2023-01-12T13:50:18.979Z,6.97
2023-01-12T13:53:04.986Z,4.87
2023-01-12T13:56:01.460Z,4.70
2023-01-12T13:58:51.165Z,3.83
2023-01-12T14:01:39.528Z,6.23
2023-01-12T14:04:43.162Z,6.50
2023-01-12T14:07:38.475Z,5.30
2023-01-12T14:10:59.298Z,5.10
2023-01-12T14:13:47.399Z,8.53
2023-01-12T14:16:38.451Z,7.97
2023-01-12T14:19:28.326Z,3.67
2023-01-12T14:22:19.316Z,5.87
2023-01-12T14:25:19.869Z,6.70
2023-01-12T14:28:14.800Z,7.90
2023-01-12T14:31:00.571Z,6.57
2023-01-12T14:33:52.196Z,5.87
2023-01-12T14:36:43.027Z,5.33
2023-01-12T14:39:30.863Z,5.20
2023-01-12T14:42:17.481Z,7.70
2023-01-12T14:45:12.323Z,6.17
2023-01-12T14:48:23.448Z,6.93
2023-01-12T14:51:22.537Z,6.13
2023-01-12T14:54:07.621Z,5.33
2023-01-12T14:57:29.931Z,7.80
2023-01-12T15:00:36.616Z,5.80
2023-01-12T15:03:31.869Z,6.23
2023-01-12T15:06:24.685Z,5.50
2023-01-12T15:09:26.235Z,4.47
2023-01-12T15:12:24.666Z,7.80
2023-01-12T15:15:26.844Z,4.07
2023-01-12T15:18:12.190Z,5.10
2023-01-12T15:20:57.243Z,3.80
2023-01-12T15:23:42.530Z,3.13
2023-01-12T15:26:27.490Z,6.43
2023-01-12T15:29:12.918Z,3.13
2023-01-12T15:31:58.428Z,3.63
2023-01-12T15:34:44.048Z,5.23
2023-01-12T15:37:29.367Z,4.87
2023-01-12T15:40:14.550Z,3.57
2023-01-12T15:42:59.619Z,5.00
2023-01-12T15:45:46.615Z,4.87
2023-01-12T15:48:31.597Z,4.00
2023-01-12T15:51:16.391Z,4.20
2023-01-12T15:54:03.971Z,5.57
2023-01-12T15:56:49.250Z,6.87
2023-01-12T15:59:34.510Z,7.40
2023-01-12T16:02:37.027Z,7.03
2023-01-12T16:05:24.048Z,6.67
2023-01-12T16:08:09.208Z,7.57
2023-01-12T16:10:54.194Z,7.30
2023-01-12T16:13:43.265Z,5.80
2023-01-12T16:16:28.699Z,6.07
2023-01-12T16:19:20.841Z,6.37
2023-01-12T16:22:08.625Z,7.50
2023-01-12T16:24:56.030Z,8.47
2023-01-12T16:27:41.565Z,8.97
2023-01-12T16:30:26.513Z,6.93
2023-01-12T16:33:11.559Z,7.03
2023-01-12T16:35:59.055Z,8.40
2023-01-12T16:38:44.216Z,9.93
2023-01-12T16:41:28.944Z,6.07
2023-01-12T16:44:13.912Z,6.70
2023-01-12T16:46:59.222Z,5.73
2023-01-12T16:49:47.977Z,7.93
2023-01-12T16:52:33.332Z,6.00
2023-01-12T16:55:18.710Z,6.70
2023-01-12T16:58:05.239Z,10.17
2023-01-12T17:00:50.437Z,7.30
2023-01-12T17:03:35.752Z,5.20
2023-01-12T17:06:21.180Z,5.17
2023-01-12T17:09:07.017Z,4.67
2023-01-12T17:11:52.489Z,3.40
2023-01-12T17:14:37.747Z,4.83
2023-01-12T17:17:23.445Z,6.70
2023-01-12T17:20:09.490Z,3.63
2023-01-12T17:22:54.998Z,4.63
2023-01-12T17:25:40.491Z,7.57
2023-01-12T17:28:25.780Z,6.53
2023-01-12T17:31:14.830Z,6.07
2023-01-12T17:34:00.302Z,5.87
2023-01-12T17:36:46.029Z,5.27
2023-01-12T17:39:31.523Z,4.57
2023-01-12T17:42:17.589Z,5.60
2023-01-12T17:45:03.714Z,5.03
2023-01-12T17:47:48.610Z,4.60
2023-01-12T17:50:33.511Z,6.93
2023-01-12T17:53:18.823Z,4.07
2023-01-12T17:56:04.008Z,8.43
2023-01-12T17:58:50.414Z,5.27
2023-01-12T18:01:36.774Z,5.50
2023-01-12T18:04:21.872Z,7.33
2023-01-12T18:07:06.791Z,4.77
2023-01-12T18:09:51.540Z,4.83
2023-01-12T18:12:37.369Z,4.60
2023-01-12T18:15:22.387Z,6.23
2023-01-12T18:18:07.762Z,7.40
2023-01-12T18:20:52.669Z,7.10
2023-01-12T18:23:38.299Z,7.73
2023-01-12T18:26:26.673Z,5.93
2023-01-12T18:29:11.665Z,5.97
2023-01-12T18:31:56.986Z,6.20
2023-01-12T18:34:42.377Z,6.07
2023-01-12T18:37:27.583Z,11.77
2023-01-12T18:40:12.928Z,7.73
2023-01-12T18:42:57.946Z,7.53
2023-01-12T18:45:43.166Z,6.53
2023-01-12T18:48:28.019Z,7.37
2023-01-12T18:51:14.570Z,6.70
2023-01-12T18:54:00.123Z,6.97
2023-01-12T18:56:45.208Z,4.43
2023-01-12T18:59:30.322Z,4.73
2023-01-12T19:02:17.514Z,7.77
2023-01-12T19:05:02.529Z,6.70
2023-01-12T19:07:48.119Z,4.57
2023-01-12T19:10:33.308Z,6.37
2023-01-12T19:13:18.630Z,5.93
2023-01-12T19:16:03.923Z,5.10
2023-01-12T19:18:49.313Z,5.70
2023-01-12T19:21:35.004Z,4.73
2023-01-12T19:24:20.395Z,5.70
2023-01-12T19:27:05.826Z,3.50
2023-01-12T19:29:51.031Z,4.73
2023-01-12T19:32:36.430Z,5.27
2023-01-12T19:35:21.674Z,5.77
2023-01-12T19:38:07.208Z,5.27
2023-01-12T19:40:52.079Z,7.17
2023-01-12T19:43:37.246Z,8.00
2023-01-12T19:46:22.395Z,6.47
2023-01-12T19:49:07.747Z,5.63
2023-01-12T19:51:52.475Z,4.43
2023-01-12T19:54:37.925Z,6.27
2023-01-12T19:57:23.266Z,5.57
2023-01-12T20:00:11.505Z,6.20
2023-01-12T20:02:57.739Z,5.10
2023-01-12T20:05:43.875Z,7.97
2023-01-12T20:08:28.784Z,6.43
2023-01-12T20:11:14.096Z,6.30
2023-01-12T20:13:58.997Z,7.97
2023-01-12T20:16:43.999Z,9.73
2023-01-12T20:19:28.991Z,6.47
2023-01-12T20:22:14.816Z,6.53
2023-01-12T20:24:59.555Z,8.50
2023-01-12T20:27:44.607Z,12.63
2023-01-12T20:30:37.737Z,10.20
2023-01-12T20:33:23.336Z,7.13
2023-01-12T20:36:13.471Z,7.23
2023-01-12T20:38:58.993Z,9.97
2023-01-12T20:41:44.493Z,8.70
2023-01-12T20:44:29.762Z,9.63
2023-01-12T20:47:14.696Z,8.30
2023-01-12T20:50:01.124Z,11.13
2023-01-12T20:52:46.348Z,8.43
2023-01-12T20:55:31.421Z,7.03
2023-01-12T20:58:17.580Z,6.90
2023-01-12T21:01:08.400Z,7.17
2023-01-12T21:03:53.584Z,5.03
2023-01-12T21:06:41.940Z,9.80
2023-01-12T21:09:27.126Z,7.63
2023-01-12T21:12:12.325Z,8.27
2023-01-12T21:14:57.508Z,8.93
2023-01-12T21:17:42.496Z,6.63
2023-01-12T21:20:27.474Z,6.70
2023-01-12T21:23:13.022Z,7.23
2023-01-12T21:25:58.322Z,10.30
2023-01-12T21:28:43.276Z,7.47
2023-01-12T21:31:28.214Z,7.63
2023-01-12T21:34:13.526Z,7.17
2023-01-12T21:36:58.513Z,7.53
2023-01-12T21:39:43.262Z,6.80
2023-01-12T21:42:28.371Z,7.30
2023-01-12T21:45:14.177Z,6.37
2023-01-12T21:47:59.348Z,8.07
2023-01-12T21:50:45.061Z,6.87
2023-01-12T21:53:30.176Z,6.30
2023-01-12T21:56:15.126Z,10.20
2023-01-12T21:58:59.878Z,6.70
2023-01-12T22:01:45.458Z,5.13
2023-01-12T22:04:30.664Z,4.60
2023-01-12T22:07:16.082Z,5.83
2023-01-12T22:10:01.511Z,5.37
2023-01-12T22:12:49.166Z,7.30
2023-01-12T22:15:34.335Z,4.03
2023-01-12T22:18:19.776Z,5.53
2023-01-12T22:21:07.063Z,4.00
2023-01-12T22:23:51.984Z,5.83
2023-01-12T22:26:36.815Z,4.07
2023-01-12T22:29:22.157Z,8.03
2023-01-12T22:32:06.977Z,4.17
2023-01-12T22:34:51.843Z,6.93
2023-01-12T22:37:38.039Z,4.17
2023-01-12T22:40:23.101Z,4.00
2023-01-12T22:43:09.074Z,8.17
2023-01-12T22:45:55.088Z,4.70
2023-01-12T22:48:40.426Z,3.50
2023-01-12T22:51:27.585Z,6.53
2023-01-12T22:54:12.828Z,5.53
2023-01-12T22:56:57.716Z,6.50
2023-01-12T22:59:42.425Z,4.03
2023-01-12T23:02:29.718Z,4.47
2023-01-12T23:05:15.192Z,4.73
2023-01-12T23:08:00.630Z,4.30
2023-01-12T23:10:45.872Z,3.97
2023-01-12T23:13:30.691Z,2.77
2023-01-12T23:16:17.754Z,4.93
2023-01-12T23:19:03.383Z,3.13
2023-01-12T23:21:48.543Z,6.90
2023-01-12T23:24:33.890Z,6.60
2023-01-12T23:27:18.849Z,5.33
2023-01-12T23:30:04.227Z,5.57
2023-01-12T23:32:49.200Z,4.97
2023-01-12T23:35:39.734Z,6.90
2023-01-12T23:38:24.641Z,7.53
2023-01-12T23:41:15.508Z,7.00
2023-01-12T23:44:02.198Z,5.93
2023-01-12T23:46:47.216Z,7.30
2023-01-12T23:49:32.727Z,6.87
2023-01-12T23:52:18.087Z,8.10
2023-01-12T23:55:04.773Z,8.47
2023-01-12T23:57:49.741Z,4.57
